sensor_id;sensor_type;location;lat;lon;timestamp;temperature;humidity
44843;DHT22;31884;52.538;13.820;2023-04-06T00:01:49;3.50;74.10
44843;DHT22;31884;52.538;13.820;2023-04-06T00:04:15;3.50;74.40
44843;DHT22;31884;52.538;13.820;2023-04-06T00:06:41;3.50;72.80
44843;DHT22;31884;52.538;13.820;2023-04-06T00:09:06;3.50;73.50
44843;DHT22;31884;52.538;13.820;2023-04-06T00:11:32;3.50;75.10
44843;DHT22;31884;52.538;13.820;2023-04-06T00:13:57;3.50;76.60
44843;DHT22;31884;52.538;13.820;2023-04-06T00:16:23;3.50;75.80
44843;DHT22;31884;52.538;13.820;2023-04-06T00:18:48;3.50;76.90
44843;DHT22;31884;52.538;13.820;2023-04-06T00:21:14;3.40;77.30
44843;DHT22;31884;52.538;13.820;2023-04-06T00:23:41;3.40;78.70
44843;DHT22;31884;52.538;13.820;2023-04-06T00:26:06;3.40;79.40
44843;DHT22;31884;52.538;13.820;2023-04-06T00:28:32;3.40;79.60
44843;DHT22;31884;52.538;13.820;2023-04-06T00:30:57;3.40;78.60
44843;DHT22;31884;52.538;13.820;2023-04-06T00:33:23;3.40;76.40
44843;DHT22;31884;52.538;13.820;2023-04-06T00:35:48;3.40;78.10
44843;DHT22;31884;52.538;13.820;2023-04-06T00:38:15;3.40;76.60
44843;DHT22;31884;52.538;13.820;2023-04-06T00:40:41;3.40;75.20
44843;DHT22;31884;52.538;13.820;2023-04-06T00:43:06;3.40;74.70
44843;DHT22;31884;52.538;13.820;2023-04-06T00:45:32;3.40;74.60
44843;DHT22;31884;52.538;13.820;2023-04-06T00:47:58;3.40;74.30
44843;DHT22;31884;52.538;13.820;2023-04-06T00:50:24;3.40;76.90
44843;DHT22;31884;52.538;13.820;2023-04-06T00:52:50;3.40;75.90
44843;DHT22;31884;52.538;13.820;2023-04-06T00:55:15;3.40;75.50
44843;DHT22;31884;52.538;13.820;2023-04-06T00:57:41;3.40;76.20
44843;DHT22;31884;52.538;13.820;2023-04-06T01:00:07;3.40;77.80
44843;DHT22;31884;52.538;13.820;2023-04-06T01:02:32;3.30;79.40
44843;DHT22;31884;52.538;13.820;2023-04-06T01:04:58;3.30;78.40
44843;DHT22;31884;52.538;13.820;2023-04-06T01:07:23;3.30;81.50
44843;DHT22;31884;52.538;13.820;2023-04-06T01:09:50;3.30;81.60
44843;DHT22;31884;52.538;13.820;2023-04-06T01:12:15;3.20;80.80
44843;DHT22;31884;52.538;13.820;2023-04-06T01:14:41;3.20;81.50
44843;DHT22;31884;52.538;13.820;2023-04-06T01:17:06;3.20;83.00
44843;DHT22;31884;52.538;13.820;2023-04-06T01:19:32;3.10;81.80
44843;DHT22;31884;52.538;13.820;2023-04-06T01:21:57;3.10;83.30
44843;DHT22;31884;52.538;13.820;2023-04-06T01:24:23;3.10;82.10
44843;DHT22;31884;52.538;13.820;2023-04-06T01:26:48;3.10;80.00
44843;DHT22;31884;52.538;13.820;2023-04-06T01:29:14;3.10;79.40
44843;DHT22;31884;52.538;13.820;2023-04-06T01:31:40;3.10;82.00
44843;DHT22;31884;52.538;13.820;2023-04-06T01:34:05;3.10;83.00
44843;DHT22;31884;52.538;13.820;2023-04-06T01:36:31;3.10;84.40
44843;DHT22;31884;52.538;13.820;2023-04-06T01:38:57;3.10;85.20
44843;DHT22;31884;52.538;13.820;2023-04-06T01:41:22;3.00;84.20
44843;DHT22;31884;52.538;13.820;2023-04-06T01:43:48;3.00;83.90
44843;DHT22;31884;52.538;13.820;2023-04-06T01:46:15;3.00;83.30
44843;DHT22;31884;52.538;13.820;2023-04-06T01:48:41;3.00;82.90
44843;DHT22;31884;52.538;13.820;2023-04-06T01:51:06;2.90;85.30
44843;DHT22;31884;52.538;13.820;2023-04-06T01:53:32;2.90;89.60
44843;DHT22;31884;52.538;13.820;2023-04-06T01:55:57;2.90;90.60
44843;DHT22;31884;52.538;13.820;2023-04-06T01:58:23;2.80;91.90
44843;DHT22;31884;52.538;13.820;2023-04-06T02:00:48;2.80;93.80
44843;DHT22;31884;52.538;13.820;2023-04-06T02:03:14;2.80;94.00
44843;DHT22;31884;52.538;13.820;2023-04-06T02:05:40;2.80;92.00
44843;DHT22;31884;52.538;13.820;2023-04-06T02:08:05;2.80;92.30
44843;DHT22;31884;52.538;13.820;2023-04-06T02:10:32;2.80;92.40
44843;DHT22;31884;52.538;13.820;2023-04-06T02:12:57;2.80;91.90
44843;DHT22;31884;52.538;13.820;2023-04-06T02:15:23;2.80;93.70
44843;DHT22;31884;52.538;13.820;2023-04-06T02:17:49;2.80;93.40
44843;DHT22;31884;52.538;13.820;2023-04-06T02:20:14;2.80;93.70
44843;DHT22;31884;52.538;13.820;2023-04-06T02:22:40;2.80;92.80
44843;DHT22;31884;52.538;13.820;2023-04-06T02:25:06;2.70;93.60
44843;DHT22;31884;52.538;13.820;2023-04-06T02:27:31;2.70;93.90
44843;DHT22;31884;52.538;13.820;2023-04-06T02:29:57;2.70;93.30
44843;DHT22;31884;52.538;13.820;2023-04-06T02:32:22;2.80;93.60
44843;DHT22;31884;52.538;13.820;2023-04-06T02:34:48;2.80;94.10
44843;DHT22;31884;52.538;13.820;2023-04-06T02:37:13;2.70;94.60
44843;DHT22;31884;52.538;13.820;2023-04-06T02:39:39;2.70;93.60
44843;DHT22;31884;52.538;13.820;2023-04-06T02:42:04;2.70;93.60
44843;DHT22;31884;52.538;13.820;2023-04-06T02:44:30;2.70;91.20
44843;DHT22;31884;52.538;13.820;2023-04-06T02:46:55;2.70;90.40
44843;DHT22;31884;52.538;13.820;2023-04-06T02:49:21;2.70;89.20
44843;DHT22;31884;52.538;13.820;2023-04-06T02:51:46;2.70;88.30
44843;DHT22;31884;52.538;13.820;2023-04-06T02:54:12;2.70;87.60
44843;DHT22;31884;52.538;13.820;2023-04-06T02:56:37;2.70;88.30
44843;DHT22;31884;52.538;13.820;2023-04-06T02:59:03;2.70;88.00
44843;DHT22;31884;52.538;13.820;2023-04-06T03:01:28;2.60;87.90
44843;DHT22;31884;52.538;13.820;2023-04-06T03:03:54;2.60;87.30
44843;DHT22;31884;52.538;13.820;2023-04-06T03:06:19;2.60;88.30
44843;DHT22;31884;52.538;13.820;2023-04-06T03:08:45;2.50;87.90
44843;DHT22;31884;52.538;13.820;2023-04-06T03:11:11;2.50;88.80
44843;DHT22;31884;52.538;13.820;2023-04-06T03:13:37;2.40;90.90
44843;DHT22;31884;52.538;13.820;2023-04-06T03:16:04;2.40;90.40
44843;DHT22;31884;52.538;13.820;2023-04-06T03:18:30;2.30;90.80
44843;DHT22;31884;52.538;13.820;2023-04-06T03:20:55;2.30;90.00
44843;DHT22;31884;52.538;13.820;2023-04-06T03:23:21;2.20;90.90
44843;DHT22;31884;52.538;13.820;2023-04-06T03:25:47;2.10;90.80
44843;DHT22;31884;52.538;13.820;2023-04-06T03:28:12;2.10;92.20
44843;DHT22;31884;52.538;13.820;2023-04-06T03:30:37;2.10;94.90
44843;DHT22;31884;52.538;13.820;2023-04-06T03:33:03;2.00;93.90
44843;DHT22;31884;52.538;13.820;2023-04-06T03:35:29;2.00;92.70
44843;DHT22;31884;52.538;13.820;2023-04-06T03:37:54;1.90;92.70
44843;DHT22;31884;52.538;13.820;2023-04-06T03:40:20;1.80;91.40
44843;DHT22;31884;52.538;13.820;2023-04-06T03:42:46;1.80;91.70
44843;DHT22;31884;52.538;13.820;2023-04-06T03:45:11;1.70;91.30
44843;DHT22;31884;52.538;13.820;2023-04-06T03:47:38;1.60;91.00
44843;DHT22;31884;52.538;13.820;2023-04-06T03:50:04;1.60;91.00
44843;DHT22;31884;52.538;13.820;2023-04-06T03:52:30;1.50;91.60
44843;DHT22;31884;52.538;13.820;2023-04-06T03:54:55;1.50;92.10
44843;DHT22;31884;52.538;13.820;2023-04-06T03:57:21;1.40;92.40
44843;DHT22;31884;52.538;13.820;2023-04-06T03:59:46;1.30;93.10
44843;DHT22;31884;52.538;13.820;2023-04-06T04:02:11;1.20;92.40
44843;DHT22;31884;52.538;13.820;2023-04-06T04:04:38;1.10;91.90
44843;DHT22;31884;52.538;13.820;2023-04-06T04:07:03;1.10;91.80
44843;DHT22;31884;52.538;13.820;2023-04-06T04:09:29;1.00;92.60
44843;DHT22;31884;52.538;13.820;2023-04-06T04:11:54;0.90;92.70
44843;DHT22;31884;52.538;13.820;2023-04-06T04:14:20;0.90;92.70
44843;DHT22;31884;52.538;13.820;2023-04-06T04:16:45;0.80;93.10
44843;DHT22;31884;52.538;13.820;2023-04-06T04:19:11;0.70;93.90
44843;DHT22;31884;52.538;13.820;2023-04-06T04:21:43;0.70;94.20
44843;DHT22;31884;52.538;13.820;2023-04-06T04:24:10;0.60;94.10
44843;DHT22;31884;52.538;13.820;2023-04-06T04:26:35;0.60;94.70
44843;DHT22;31884;52.538;13.820;2023-04-06T04:29:01;0.50;94.50
44843;DHT22;31884;52.538;13.820;2023-04-06T04:31:26;0.50;95.70
44843;DHT22;31884;52.538;13.820;2023-04-06T04:33:51;0.40;95.80
44843;DHT22;31884;52.538;13.820;2023-04-06T04:36:17;0.40;96.60
44843;DHT22;31884;52.538;13.820;2023-04-06T04:38:42;0.30;97.40
44843;DHT22;31884;52.538;13.820;2023-04-06T04:41:08;0.30;97.50
44843;DHT22;31884;52.538;13.820;2023-04-06T04:43:33;0.30;98.20
44843;DHT22;31884;52.538;13.820;2023-04-06T04:45:59;0.20;98.00
44843;DHT22;31884;52.538;13.820;2023-04-06T04:48:24;0.20;98.50
44843;DHT22;31884;52.538;13.820;2023-04-06T04:50:50;0.20;99.60
44843;DHT22;31884;52.538;13.820;2023-04-06T04:53:16;0.20;99.90
44843;DHT22;31884;52.538;13.820;2023-04-06T04:55:41;0.20;99.90
44843;DHT22;31884;52.538;13.820;2023-04-06T04:58:07;0.20;99.90
44843;DHT22;31884;52.538;13.820;2023-04-06T05:00:34;0.20;99.50
44843;DHT22;31884;52.538;13.820;2023-04-06T05:02:59;0.20;98.60
44843;DHT22;31884;52.538;13.820;2023-04-06T05:05:25;0.20;98.20
44843;DHT22;31884;52.538;13.820;2023-04-06T05:07:51;0.30;99.70
44843;DHT22;31884;52.538;13.820;2023-04-06T05:10:16;0.30;99.60
44843;DHT22;31884;52.538;13.820;2023-04-06T05:12:42;0.30;98.40
44843;DHT22;31884;52.538;13.820;2023-04-06T05:15:08;0.40;98.20
44843;DHT22;31884;52.538;13.820;2023-04-06T05:17:34;0.40;97.20
44843;DHT22;31884;52.538;13.820;2023-04-06T05:19:59;0.60;96.90
44843;DHT22;31884;52.538;13.820;2023-04-06T05:22:25;0.70;96.50
44843;DHT22;31884;52.538;13.820;2023-04-06T05:24:51;0.80;96.60
44843;DHT22;31884;52.538;13.820;2023-04-06T05:27:16;0.90;96.00
44843;DHT22;31884;52.538;13.820;2023-04-06T05:29:42;1.00;96.60
44843;DHT22;31884;52.538;13.820;2023-04-06T05:32:07;1.30;96.40
44843;DHT22;31884;52.538;13.820;2023-04-06T05:34:33;1.70;96.10
44843;DHT22;31884;52.538;13.820;2023-04-06T05:36:58;2.10;96.70
44843;DHT22;31884;52.538;13.820;2023-04-06T05:39:24;2.60;94.90
44843;DHT22;31884;52.538;13.820;2023-04-06T05:41:49;2.80;92.80
44843;DHT22;31884;52.538;13.820;2023-04-06T05:44:15;3.30;92.40
44843;DHT22;31884;52.538;13.820;2023-04-06T05:46:40;3.70;90.10
44843;DHT22;31884;52.538;13.820;2023-04-06T05:49:06;4.40;86.00
44843;DHT22;31884;52.538;13.820;2023-04-06T05:51:31;5.30;81.40
44843;DHT22;31884;52.538;13.820;2023-04-06T05:53:57;6.10;76.30
44843;DHT22;31884;52.538;13.820;2023-04-06T05:56:23;7.20;70.40
44843;DHT22;31884;52.538;13.820;2023-04-06T05:58:49;8.30;63.90
44843;DHT22;31884;52.538;13.820;2023-04-06T06:01:14;9.20;58.20
44843;DHT22;31884;52.538;13.820;2023-04-06T06:03:40;10.10;54.50
44843;DHT22;31884;52.538;13.820;2023-04-06T06:06:06;10.80;48.50
44843;DHT22;31884;52.538;13.820;2023-04-06T06:08:31;11.60;48.40
44843;DHT22;31884;52.538;13.820;2023-04-06T06:10:57;12.30;45.00
44843;DHT22;31884;52.538;13.820;2023-04-06T06:13:23;13.00;36.70
44843;DHT22;31884;52.538;13.820;2023-04-06T06:15:49;13.50;35.00
44843;DHT22;31884;52.538;13.820;2023-04-06T06:18:15;14.10;30.70
44843;DHT22;31884;52.538;13.820;2023-04-06T06:20:40;14.50;29.40
44843;DHT22;31884;52.538;13.820;2023-04-06T06:23:06;15.00;26.50
44843;DHT22;31884;52.538;13.820;2023-04-06T06:25:32;15.30;24.00
44843;DHT22;31884;52.538;13.820;2023-04-06T06:27:58;15.90;23.70
44843;DHT22;31884;52.538;13.820;2023-04-06T06:30:24;16.60;22.50
44843;DHT22;31884;52.538;13.820;2023-04-06T06:32:50;16.40;19.20
44843;DHT22;31884;52.538;13.820;2023-04-06T06:35:16;16.50;18.80
44843;DHT22;31884;52.538;13.820;2023-04-06T06:37:42;16.90;17.70
44843;DHT22;31884;52.538;13.820;2023-04-06T06:40:08;17.50;16.90
44843;DHT22;31884;52.538;13.820;2023-04-06T06:42:34;17.90;15.90
44843;DHT22;31884;52.538;13.820;2023-04-06T06:45:00;17.40;13.20
44843;DHT22;31884;52.538;13.820;2023-04-06T06:47:25;17.50;13.60
44843;DHT22;31884;52.538;13.820;2023-04-06T06:49:51;16.90;13.10
44843;DHT22;31884;52.538;13.820;2023-04-06T06:52:17;17.10;12.90
44843;DHT22;31884;52.538;13.820;2023-04-06T06:54:42;17.60;11.50
44843;DHT22;31884;52.538;13.820;2023-04-06T06:57:08;16.60;7.70
44843;DHT22;31884;52.538;13.820;2023-04-06T06:59:34;16.90;10.50
44843;DHT22;31884;52.538;13.820;2023-04-06T07:01:59;17.30;10.00
44843;DHT22;31884;52.538;13.820;2023-04-06T07:04:25;17.60;8.00
44843;DHT22;31884;52.538;13.820;2023-04-06T07:06:50;17.70;9.20
44843;DHT22;31884;52.538;13.820;2023-04-06T07:09:18;18.10;8.60
44843;DHT22;31884;52.538;13.820;2023-04-06T07:11:43;18.20;7.00
44843;DHT22;31884;52.538;13.820;2023-04-06T07:14:09;18.50;8.10
44843;DHT22;31884;52.538;13.820;2023-04-06T07:16:34;19.00;8.10
44843;DHT22;31884;52.538;13.820;2023-04-06T07:19:00;19.30;6.50
44843;DHT22;31884;52.538;13.820;2023-04-06T07:21:25;19.20;4.50
44843;DHT22;31884;52.538;13.820;2023-04-06T07:23:51;19.40;5.70
44843;DHT22;31884;52.538;13.820;2023-04-06T07:26:17;19.60;6.50
44843;DHT22;31884;52.538;13.820;2023-04-06T07:28:42;20.30;5.80
44843;DHT22;31884;52.538;13.820;2023-04-06T07:31:08;20.90;6.20
44843;DHT22;31884;52.538;13.820;2023-04-06T07:33:34;20.80;1.00
44843;DHT22;31884;52.538;13.820;2023-04-06T07:36:00;20.30;3.10
44843;DHT22;31884;52.538;13.820;2023-04-06T07:38:25;20.00;1.50
44843;DHT22;31884;52.538;13.820;2023-04-06T07:40:51;19.50;1.00
44843;DHT22;31884;52.538;13.820;2023-04-06T07:43:16;18.90;2.50
44843;DHT22;31884;52.538;13.820;2023-04-06T07:45:42;18.90;1.20
44843;DHT22;31884;52.538;13.820;2023-04-06T07:48:07;19.30;3.80
44843;DHT22;31884;52.538;13.820;2023-04-06T07:50:33;19.20;3.10
44843;DHT22;31884;52.538;13.820;2023-04-06T07:52:59;19.20;2.10
44843;DHT22;31884;52.538;13.820;2023-04-06T07:55:25;18.70;2.20
44843;DHT22;31884;52.538;13.820;2023-04-06T07:57:50;18.90;2.10
44843;DHT22;31884;52.538;13.820;2023-04-06T08:00:16;18.80;2.70
44843;DHT22;31884;52.538;13.820;2023-04-06T08:02:42;18.70;2.60
44843;DHT22;31884;52.538;13.820;2023-04-06T08:05:08;18.20;2.40
44843;DHT22;31884;52.538;13.820;2023-04-06T08:07:33;17.70;3.10
44843;DHT22;31884;52.538;13.820;2023-04-06T08:09:59;17.20;1.00
44843;DHT22;31884;52.538;13.820;2023-04-06T08:12:25;16.80;1.00
44843;DHT22;31884;52.538;13.820;2023-04-06T08:14:50;16.90;3.50
44843;DHT22;31884;52.538;13.820;2023-04-06T08:17:15;17.20;4.00
44843;DHT22;31884;52.538;13.820;2023-04-06T08:19:43;17.40;1.60
44843;DHT22;31884;52.538;13.820;2023-04-06T08:22:09;17.50;3.60
44843;DHT22;31884;52.538;13.820;2023-04-06T08:24:35;17.60;3.80
44843;DHT22;31884;52.538;13.820;2023-04-06T08:27:00;17.60;3.40
44843;DHT22;31884;52.538;13.820;2023-04-06T08:29:26;17.50;2.90
44843;DHT22;31884;52.538;13.820;2023-04-06T08:31:51;17.10;1.40
44843;DHT22;31884;52.538;13.820;2023-04-06T08:34:17;17.00;2.90
44843;DHT22;31884;52.538;13.820;2023-04-06T08:36:42;16.70;1.00
44843;DHT22;31884;52.538;13.820;2023-04-06T08:39:08;16.30;1.00
44843;DHT22;31884;52.538;13.820;2023-04-06T08:41:34;16.30;1.50
44843;DHT22;31884;52.538;13.820;2023-04-06T08:44:00;16.40;2.20
44843;DHT22;31884;52.538;13.820;2023-04-06T08:46:27;16.60;2.80
44843;DHT22;31884;52.538;13.820;2023-04-06T08:48:58;16.70;2.50
44843;DHT22;31884;52.538;13.820;2023-04-06T08:51:24;16.20;1.00
44843;DHT22;31884;52.538;13.820;2023-04-06T08:53:57;15.90;1.00
44843;DHT22;31884;52.538;13.820;2023-04-06T08:56:23;16.20;1.00
44843;DHT22;31884;52.538;13.820;2023-04-06T08:58:50;16.40;2.00
44843;DHT22;31884;52.538;13.820;2023-04-06T09:01:20;16.40;1.50
44843;DHT22;31884;52.538;13.820;2023-04-06T09:03:46;15.90;1.50
44843;DHT22;31884;52.538;13.820;2023-04-06T09:06:13;15.30;2.00
44843;DHT22;31884;52.538;13.820;2023-04-06T09:08:40;15.50;2.50
44843;DHT22;31884;52.538;13.820;2023-04-06T09:11:06;16.00;2.30
44843;DHT22;31884;52.538;13.820;2023-04-06T09:13:43;15.30;1.00
44843;DHT22;31884;52.538;13.820;2023-04-06T09:16:09;14.50;2.20
44843;DHT22;31884;52.538;13.820;2023-04-06T09:18:34;14.20;2.40
44843;DHT22;31884;52.538;13.820;2023-04-06T09:21:02;14.20;2.70
44843;DHT22;31884;52.538;13.820;2023-04-06T09:23:28;14.60;2.90
44843;DHT22;31884;52.538;13.820;2023-04-06T09:26:05;14.30;2.50
44843;DHT22;31884;52.538;13.820;2023-04-06T09:31:11;14.50;1.50
44843;DHT22;31884;52.538;13.820;2023-04-06T09:33:38;14.10;2.40
44843;DHT22;31884;52.538;13.820;2023-04-06T09:36:04;14.20;2.60
44843;DHT22;31884;52.538;13.820;2023-04-06T09:38:30;14.70;2.30
44843;DHT22;31884;52.538;13.820;2023-04-06T09:40:55;14.80;1.50
44843;DHT22;31884;52.538;13.820;2023-04-06T09:43:28;15.00;1.10
44843;DHT22;31884;52.538;13.820;2023-04-06T09:45:56;14.40;1.10
44843;DHT22;31884;52.538;13.820;2023-04-06T09:48:22;14.10;1.30
44843;DHT22;31884;52.538;13.820;2023-04-06T09:50:50;14.10;1.70
44843;DHT22;31884;52.538;13.820;2023-04-06T09:53:19;14.00;1.30
44843;DHT22;31884;52.538;13.820;2023-04-06T09:55:46;14.20;1.20
44843;DHT22;31884;52.538;13.820;2023-04-06T09:58:16;14.40;1.10
44843;DHT22;31884;52.538;13.820;2023-04-06T10:04:37;14.10;2.00
44843;DHT22;31884;52.538;13.820;2023-04-06T10:06:32;13.90;1.30
44843;DHT22;31884;52.538;13.820;2023-04-06T10:09:02;13.40;1.70
44843;DHT22;31884;52.538;13.820;2023-04-06T10:11:29;12.90;1.80
44843;DHT22;31884;52.538;13.820;2023-04-06T10:13:55;12.60;2.50
44843;DHT22;31884;52.538;13.820;2023-04-06T10:16:21;12.20;3.40
44843;DHT22;31884;52.538;13.820;2023-04-06T10:18:52;12.00;3.50
44843;DHT22;31884;52.538;13.820;2023-04-06T10:21:22;12.10;4.00
44843;DHT22;31884;52.538;13.820;2023-04-06T10:23:54;11.70;4.20
44843;DHT22;31884;52.538;13.820;2023-04-06T10:26:20;11.80;5.00
44843;DHT22;31884;52.538;13.820;2023-04-06T10:28:47;11.50;4.80
44843;DHT22;31884;52.538;13.820;2023-04-06T10:31:13;11.30;5.50
44843;DHT22;31884;52.538;13.820;2023-04-06T10:33:39;11.10;6.50
44843;DHT22;31884;52.538;13.820;2023-04-06T10:36:21;11.10;6.30
44843;DHT22;31884;52.538;13.820;2023-04-06T10:38:47;11.30;5.90
44843;DHT22;31884;52.538;13.820;2023-04-06T10:41:12;11.20;6.30
44843;DHT22;31884;52.538;13.820;2023-04-06T10:43:40;11.40;5.60
44843;DHT22;31884;52.538;13.820;2023-04-06T10:46:07;11.50;6.10
44843;DHT22;31884;52.538;13.820;2023-04-06T10:48:44;11.70;5.90
44843;DHT22;31884;52.538;13.820;2023-04-06T10:51:15;11.60;5.10
44843;DHT22;31884;52.538;13.820;2023-04-06T10:53:47;11.70;5.40
44843;DHT22;31884;52.538;13.820;2023-04-06T10:56:20;11.90;4.90
44843;DHT22;31884;52.538;13.820;2023-04-06T10:58:51;11.90;4.40
44843;DHT22;31884;52.538;13.820;2023-04-06T11:01:19;12.00;4.40
44843;DHT22;31884;52.538;13.820;2023-04-06T11:03:56;11.40;5.40
44843;DHT22;31884;52.538;13.820;2023-04-06T11:06:27;11.40;5.50
44843;DHT22;31884;52.538;13.820;2023-04-06T11:08:54;11.20;5.70
44843;DHT22;31884;52.538;13.820;2023-04-06T11:11:23;11.00;6.30
44843;DHT22;31884;52.538;13.820;2023-04-06T11:13:53;11.20;6.30
44843;DHT22;31884;52.538;13.820;2023-04-06T11:16:20;11.40;5.50
44843;DHT22;31884;52.538;13.820;2023-04-06T11:19:06;11.40;6.00
44843;DHT22;31884;52.538;13.820;2023-04-06T11:21:33;11.20;6.10
44843;DHT22;31884;52.538;13.820;2023-04-06T11:29:05;11.70;4.90
44843;DHT22;31884;52.538;13.820;2023-04-06T11:31:31;11.90;4.60
44843;DHT22;31884;52.538;13.820;2023-04-06T11:33:57;11.90;4.80
44843;DHT22;31884;52.538;13.820;2023-04-06T11:36:22;11.70;4.80
44843;DHT22;31884;52.538;13.820;2023-04-06T11:38:48;11.70;5.20
44843;DHT22;31884;52.538;13.820;2023-04-06T11:41:14;11.70;5.10
44843;DHT22;31884;52.538;13.820;2023-04-06T11:43:47;11.60;6.00
44843;DHT22;31884;52.538;13.820;2023-04-06T11:46:17;11.20;6.00
44843;DHT22;31884;52.538;13.820;2023-04-06T11:48:46;11.00;6.40
44843;DHT22;31884;52.538;13.820;2023-04-06T11:51:12;10.80;7.00
44843;DHT22;31884;52.538;13.820;2023-04-06T11:53:46;10.90;6.70
44843;DHT22;31884;52.538;13.820;2023-04-06T11:56:26;11.10;7.00
44843;DHT22;31884;52.538;13.820;2023-04-06T11:58:54;11.30;6.70
44843;DHT22;31884;52.538;13.820;2023-04-06T12:01:19;11.30;6.20
44843;DHT22;31884;52.538;13.820;2023-04-06T12:03:45;11.30;5.50
44843;DHT22;31884;52.538;13.820;2023-04-06T12:06:11;11.40;6.50
44843;DHT22;31884;52.538;13.820;2023-04-06T12:08:36;11.50;5.50
44843;DHT22;31884;52.538;13.820;2023-04-06T12:11:01;11.30;5.30
44843;DHT22;31884;52.538;13.820;2023-04-06T12:13:27;10.90;5.30
44843;DHT22;31884;52.538;13.820;2023-04-06T12:15:53;10.90;5.60
44843;DHT22;31884;52.538;13.820;2023-04-06T12:18:18;11.00;5.60
44843;DHT22;31884;52.538;13.820;2023-04-06T12:20:44;11.00;5.30
44843;DHT22;31884;52.538;13.820;2023-04-06T12:23:09;11.00;5.70
44843;DHT22;31884;52.538;13.820;2023-04-06T12:25:35;10.80;6.20
44843;DHT22;31884;52.538;13.820;2023-04-06T12:28:00;10.80;5.90
44843;DHT22;31884;52.538;13.820;2023-04-06T12:30:26;11.00;6.00
44843;DHT22;31884;52.538;13.820;2023-04-06T12:32:51;11.00;6.00
44843;DHT22;31884;52.538;13.820;2023-04-06T12:35:17;11.00;6.20
44843;DHT22;31884;52.538;13.820;2023-04-06T12:37:42;11.10;5.70
44843;DHT22;31884;52.538;13.820;2023-04-06T12:40:08;11.10;4.80
44843;DHT22;31884;52.538;13.820;2023-04-06T12:42:36;11.10;5.00
44843;DHT22;31884;52.538;13.820;2023-04-06T12:45:01;11.00;4.70
44843;DHT22;31884;52.538;13.820;2023-04-06T12:47:27;10.80;4.70
44843;DHT22;31884;52.538;13.820;2023-04-06T12:49:53;11.00;4.90
44843;DHT22;31884;52.538;13.820;2023-04-06T12:52:19;11.20;5.50
44843;DHT22;31884;52.538;13.820;2023-04-06T12:54:44;11.10;5.20
44843;DHT22;31884;52.538;13.820;2023-04-06T12:57:10;11.20;4.90
44843;DHT22;31884;52.538;13.820;2023-04-06T12:59:35;11.20;5.60
44843;DHT22;31884;52.538;13.820;2023-04-06T13:02:03;11.40;4.80
44843;DHT22;31884;52.538;13.820;2023-04-06T13:04:28;11.40;4.40
44843;DHT22;31884;52.538;13.820;2023-04-06T13:06:54;11.50;4.40
44843;DHT22;31884;52.538;13.820;2023-04-06T13:09:19;11.50;4.20
44843;DHT22;31884;52.538;13.820;2023-04-06T13:11:45;11.40;4.20
44843;DHT22;31884;52.538;13.820;2023-04-06T13:14:11;11.30;4.30
44843;DHT22;31884;52.538;13.820;2023-04-06T13:16:36;11.20;4.40
44843;DHT22;31884;52.538;13.820;2023-04-06T13:19:02;11.30;4.80
44843;DHT22;31884;52.538;13.820;2023-04-06T13:21:28;11.30;4.50
44843;DHT22;31884;52.538;13.820;2023-04-06T13:23:53;11.40;3.80
44843;DHT22;31884;52.538;13.820;2023-04-06T13:26:19;11.50;4.30
44843;DHT22;31884;52.538;13.820;2023-04-06T13:28:45;11.60;4.40
44843;DHT22;31884;52.538;13.820;2023-04-06T13:31:10;11.50;3.40
44843;DHT22;31884;52.538;13.820;2023-04-06T13:33:36;11.50;2.80
44843;DHT22;31884;52.538;13.820;2023-04-06T13:36:02;11.50;3.30
44843;DHT22;31884;52.538;13.820;2023-04-06T13:38:29;11.60;3.30
44843;DHT22;31884;52.538;13.820;2023-04-06T13:40:55;11.70;3.00
44843;DHT22;31884;52.538;13.820;2023-04-06T13:43:21;11.80;3.20
44843;DHT22;31884;52.538;13.820;2023-04-06T13:45:51;12.00;2.20
44843;DHT22;31884;52.538;13.820;2023-04-06T13:48:17;12.00;3.00
44843;DHT22;31884;52.538;13.820;2023-04-06T13:50:43;12.10;3.60
44843;DHT22;31884;52.538;13.820;2023-04-06T13:53:09;12.30;3.10
44843;DHT22;31884;52.538;13.820;2023-04-06T13:55:35;12.40;2.50
44843;DHT22;31884;52.538;13.820;2023-04-06T13:58:00;12.40;2.20
44843;DHT22;31884;52.538;13.820;2023-04-06T14:00:25;12.50;1.60
44843;DHT22;31884;52.538;13.820;2023-04-06T14:02:53;12.40;1.50
44843;DHT22;31884;52.538;13.820;2023-04-06T14:05:19;12.50;2.00
44843;DHT22;31884;52.538;13.820;2023-04-06T14:07:45;12.30;1.00
44843;DHT22;31884;52.538;13.820;2023-04-06T14:10:11;12.40;2.00
44843;DHT22;31884;52.538;13.820;2023-04-06T14:12:43;12.40;2.10
44843;DHT22;31884;52.538;13.820;2023-04-06T14:15:11;12.30;3.20
44843;DHT22;31884;52.538;13.820;2023-04-06T14:17:37;12.20;3.20
44843;DHT22;31884;52.538;13.820;2023-04-06T14:20:03;11.80;3.30
44843;DHT22;31884;52.538;13.820;2023-04-06T14:22:29;11.70;3.50
44843;DHT22;31884;52.538;13.820;2023-04-06T14:24:55;11.50;3.70
44843;DHT22;31884;52.538;13.820;2023-04-06T14:27:21;11.40;4.20
44843;DHT22;31884;52.538;13.820;2023-04-06T14:29:47;11.30;4.30
44843;DHT22;31884;52.538;13.820;2023-04-06T14:32:12;11.10;4.90
44843;DHT22;31884;52.538;13.820;2023-04-06T14:34:38;10.90;4.70
44843;DHT22;31884;52.538;13.820;2023-04-06T14:37:03;10.80;4.30
44843;DHT22;31884;52.538;13.820;2023-04-06T14:39:29;10.70;4.80
44843;DHT22;31884;52.538;13.820;2023-04-06T14:41:54;10.80;5.10
44843;DHT22;31884;52.538;13.820;2023-04-06T14:44:21;10.80;5.40
44843;DHT22;31884;52.538;13.820;2023-04-06T14:46:46;10.70;5.40
44843;DHT22;31884;52.538;13.820;2023-04-06T14:49:12;10.50;5.20
44843;DHT22;31884;52.538;13.820;2023-04-06T14:51:37;10.50;5.20
44843;DHT22;31884;52.538;13.820;2023-04-06T14:54:03;10.60;5.10
44843;DHT22;31884;52.538;13.820;2023-04-06T14:56:29;10.60;5.30
44843;DHT22;31884;52.538;13.820;2023-04-06T14:59:00;10.70;4.80
44843;DHT22;31884;52.538;13.820;2023-04-06T15:01:29;10.70;4.60
44843;DHT22;31884;52.538;13.820;2023-04-06T15:03:54;10.50;4.20
44843;DHT22;31884;52.538;13.820;2023-04-06T15:06:20;10.40;4.10
44843;DHT22;31884;52.538;13.820;2023-04-06T15:08:47;10.40;4.30
44843;DHT22;31884;52.538;13.820;2023-04-06T15:11:12;10.30;4.40
44843;DHT22;31884;52.538;13.820;2023-04-06T15:13:39;10.30;4.70
44843;DHT22;31884;52.538;13.820;2023-04-06T15:16:05;10.40;4.70
44843;DHT22;31884;52.538;13.820;2023-04-06T15:18:31;10.40;4.80
44843;DHT22;31884;52.538;13.820;2023-04-06T15:20:56;10.30;4.80
44843;DHT22;31884;52.538;13.820;2023-04-06T15:23:22;10.30;4.30
44843;DHT22;31884;52.538;13.820;2023-04-06T15:25:47;10.20;4.50
44843;DHT22;31884;52.538;13.820;2023-04-06T15:28:13;10.20;4.40
44843;DHT22;31884;52.538;13.820;2023-04-06T15:30:38;10.20;4.40
44843;DHT22;31884;52.538;13.820;2023-04-06T15:33:06;10.30;4.90
44843;DHT22;31884;52.538;13.820;2023-04-06T15:35:32;10.30;5.00